sensor_id;sensor_type;location;lat;lon;timestamp;P1;durP1;ratioP1;P2;durP2;ratioP2
73733;SDS011;62039;50.000;9.064;2022-07-17T00:02:05;1.20;;;1.00;;
73733;SDS011;62039;50.000;9.064;2022-07-17T00:04:32;2.23;;;1.20;;
73733;SDS011;62039;50.000;9.064;2022-07-17T00:06:59;1.73;;;1.03;;
73733;SDS011;62039;50.000;9.064;2022-07-17T00:09:25;1.00;;;0.90;;
73733;SDS011;62039;50.000;9.064;2022-07-17T00:11:53;1.17;;;0.87;;
73733;SDS011;62039;50.000;9.064;2022-07-17T00:14:20;2.20;;;1.10;;
73733;SDS011;62039;50.000;9.064;2022-07-17T00:16:46;3.37;;;0.83;;
73733;SDS011;62039;50.000;9.064;2022-07-17T00:19:13;1.23;;;0.90;;
73733;SDS011;62039;50.000;9.064;2022-07-17T00:21:40;1.00;;;0.80;;
73733;SDS011;62039;50.000;9.064;2022-07-17T00:24:06;0.97;;;0.83;;
73733;SDS011;62039;50.000;9.064;2022-07-17T00:26:33;1.27;;;0.80;;
73733;SDS011;62039;50.000;9.064;2022-07-17T00:29:01;1.00;;;0.90;;
73733;SDS011;62039;50.000;9.064;2022-07-17T00:31:28;1.57;;;0.80;;
73733;SDS011;62039;50.000;9.064;2022-07-17T00:33:56;2.10;;;1.10;;
73733;SDS011;62039;50.000;9.064;2022-07-17T00:36:22;2.30;;;1.20;;
73733;SDS011;62039;50.000;9.064;2022-07-17T00:38:49;1.43;;;1.10;;
73733;SDS011;62039;50.000;9.064;2022-07-17T00:41:15;1.60;;;1.30;;
73733;SDS011;62039;50.000;9.064;2022-07-17T00:43:42;2.00;;;0.80;;
73733;SDS011;62039;50.000;9.064;2022-07-17T00:46:10;1.27;;;1.00;;
73733;SDS011;62039;50.000;9.064;2022-07-17T00:48:36;0.97;;;0.80;;
73733;SDS011;62039;50.000;9.064;2022-07-17T00:51:03;1.17;;;0.70;;
73733;SDS011;62039;50.000;9.064;2022-07-17T00:53:30;1.17;;;0.70;;
73733;SDS011;62039;50.000;9.064;2022-07-17T00:55:58;1.90;;;0.90;;
73733;SDS011;62039;50.000;9.064;2022-07-17T00:58:28;1.40;;;1.00;;
73733;SDS011;62039;50.000;9.064;2022-07-17T01:00:55;1.17;;;1.00;;
73733;SDS011;62039;50.000;9.064;2022-07-17T01:03:24;1.27;;;1.13;;
73733;SDS011;62039;50.000;9.064;2022-07-17T01:05:52;1.60;;;1.00;;
73733;SDS011;62039;50.000;9.064;2022-07-17T01:08:19;1.60;;;1.00;;
73733;SDS011;62039;50.000;9.064;2022-07-17T01:10:46;1.70;;;1.20;;
73733;SDS011;62039;50.000;9.064;2022-07-17T01:13:13;1.30;;;0.93;;
73733;SDS011;62039;50.000;9.064;2022-07-17T01:15:40;1.03;;;0.93;;
73733;SDS011;62039;50.000;9.064;2022-07-17T01:18:08;1.53;;;1.00;;
73733;SDS011;62039;50.000;9.064;2022-07-17T01:20:39;2.13;;;0.97;;
73733;SDS011;62039;50.000;9.064;2022-07-17T01:23:09;1.43;;;1.00;;
73733;SDS011;62039;50.000;9.064;2022-07-17T01:25:36;1.23;;;1.00;;
73733;SDS011;62039;50.000;9.064;2022-07-17T01:28:03;0.93;;;0.90;;
73733;SDS011;62039;50.000;9.064;2022-07-17T01:30:31;1.37;;;1.03;;
73733;SDS011;62039;50.000;9.064;2022-07-17T01:32:59;1.07;;;0.97;;
73733;SDS011;62039;50.000;9.064;2022-07-17T01:35:26;2.23;;;1.10;;
73733;SDS011;62039;50.000;9.064;2022-07-17T01:37:52;2.10;;;1.10;;
73733;SDS011;62039;50.000;9.064;2022-07-17T01:40:20;1.43;;;1.10;;
73733;SDS011;62039;50.000;9.064;2022-07-17T01:42:47;2.63;;;1.13;;
73733;SDS011;62039;50.000;9.064;2022-07-17T01:45:15;1.13;;;1.00;;
73733;SDS011;62039;50.000;9.064;2022-07-17T01:47:43;1.03;;;0.83;;
73733;SDS011;62039;50.000;9.064;2022-07-17T01:50:10;1.33;;;1.20;;
73733;SDS011;62039;50.000;9.064;2022-07-17T01:52:39;2.87;;;1.27;;
73733;SDS011;62039;50.000;9.064;2022-07-17T01:55:08;1.40;;;1.10;;
73733;SDS011;62039;50.000;9.064;2022-07-17T01:57:37;1.20;;;1.00;;
73733;SDS011;62039;50.000;9.064;2022-07-17T02:00:05;1.37;;;1.10;;
73733;SDS011;62039;50.000;9.064;2022-07-17T02:02:34;1.80;;;1.27;;
73733;SDS011;62039;50.000;9.064;2022-07-17T02:05:01;2.27;;;1.27;;
73733;SDS011;62039;50.000;9.064;2022-07-17T02:07:27;1.00;;;0.90;;
73733;SDS011;62039;50.000;9.064;2022-07-17T02:09:54;2.07;;;1.13;;
73733;SDS011;62039;50.000;9.064;2022-07-17T02:12:21;1.10;;;1.00;;
73733;SDS011;62039;50.000;9.064;2022-07-17T02:14:48;1.40;;;1.10;;
73733;SDS011;62039;50.000;9.064;2022-07-17T02:17:15;2.27;;;1.03;;
73733;SDS011;62039;50.000;9.064;2022-07-17T02:19:42;1.63;;;1.00;;
73733;SDS011;62039;50.000;9.064;2022-07-17T02:22:08;1.37;;;1.10;;
73733;SDS011;62039;50.000;9.064;2022-07-17T02:24:35;2.00;;;1.10;;
73733;SDS011;62039;50.000;9.064;2022-07-17T02:27:01;1.10;;;1.00;;
73733;SDS011;62039;50.000;9.064;2022-07-17T02:29:28;1.23;;;1.10;;
73733;SDS011;62039;50.000;9.064;2022-07-17T02:31:56;1.30;;;1.00;;
73733;SDS011;62039;50.000;9.064;2022-07-17T02:34:23;0.87;;;0.87;;
73733;SDS011;62039;50.000;9.064;2022-07-17T02:36:49;2.40;;;1.23;;
73733;SDS011;62039;50.000;9.064;2022-07-17T02:39:16;1.10;;;1.00;;
73733;SDS011;62039;50.000;9.064;2022-07-17T02:41:42;1.83;;;1.07;;
73733;SDS011;62039;50.000;9.064;2022-07-17T02:44:09;1.13;;;1.00;;
73733;SDS011;62039;50.000;9.064;2022-07-17T02:46:36;2.30;;;1.40;;
73733;SDS011;62039;50.000;9.064;2022-07-17T02:49:04;1.77;;;1.40;;
73733;SDS011;62039;50.000;9.064;2022-07-17T02:51:30;1.70;;;1.20;;
73733;SDS011;62039;50.000;9.064;2022-07-17T02:53:57;1.40;;;1.10;;
73733;SDS011;62039;50.000;9.064;2022-07-17T02:56:23;1.30;;;1.20;;
73733;SDS011;62039;50.000;9.064;2022-07-17T02:58:50;1.33;;;1.20;;
73733;SDS011;62039;50.000;9.064;2022-07-17T03:01:17;1.53;;;1.20;;
73733;SDS011;62039;50.000;9.064;2022-07-17T03:03:44;1.77;;;1.20;;
73733;SDS011;62039;50.000;9.064;2022-07-17T03:06:12;1.80;;;1.10;;
73733;SDS011;62039;50.000;9.064;2022-07-17T03:08:39;1.47;;;1.07;;
73733;SDS011;62039;50.000;9.064;2022-07-17T03:11:06;1.50;;;1.27;;
73733;SDS011;62039;50.000;9.064;2022-07-17T03:13:33;1.30;;;1.10;;
73733;SDS011;62039;50.000;9.064;2022-07-17T03:16:00;1.43;;;0.90;;
73733;SDS011;62039;50.000;9.064;2022-07-17T03:18:27;1.87;;;0.90;;
73733;SDS011;62039;50.000;9.064;2022-07-17T03:20:53;1.03;;;0.80;;
73733;SDS011;62039;50.000;9.064;2022-07-17T03:23:22;0.80;;;0.80;;
73733;SDS011;62039;50.000;9.064;2022-07-17T03:25:48;1.40;;;0.97;;
73733;SDS011;62039;50.000;9.064;2022-07-17T03:28:15;1.57;;;0.77;;
73733;SDS011;62039;50.000;9.064;2022-07-17T03:30:41;0.80;;;0.80;;
73733;SDS011;62039;50.000;9.064;2022-07-17T03:33:08;1.00;;;0.90;;
73733;SDS011;62039;50.000;9.064;2022-07-17T03:35:34;0.70;;;0.70;;
73733;SDS011;62039;50.000;9.064;2022-07-17T03:38:01;0.90;;;0.63;;
73733;SDS011;62039;50.000;9.064;2022-07-17T03:40:29;1.13;;;0.90;;
73733;SDS011;62039;50.000;9.064;2022-07-17T03:42:56;1.87;;;0.87;;
73733;SDS011;62039;50.000;9.064;2022-07-17T03:45:22;0.87;;;0.87;;
73733;SDS011;62039;50.000;9.064;2022-07-17T03:47:49;1.47;;;0.83;;
73733;SDS011;62039;50.000;9.064;2022-07-17T03:50:15;2.30;;;1.07;;
73733;SDS011;62039;50.000;9.064;2022-07-17T03:52:42;1.30;;;0.83;;
73733;SDS011;62039;50.000;9.064;2022-07-17T03:55:09;1.00;;;0.90;;
73733;SDS011;62039;50.000;9.064;2022-07-17T03:57:37;2.30;;;1.00;;
73733;SDS011;62039;50.000;9.064;2022-07-17T04:00:04;1.80;;;1.07;;
73733;SDS011;62039;50.000;9.064;2022-07-17T04:02:31;1.67;;;1.10;;
73733;SDS011;62039;50.000;9.064;2022-07-17T04:04:58;2.50;;;1.10;;
73733;SDS011;62039;50.000;9.064;2022-07-17T04:07:24;1.10;;;0.80;;
73733;SDS011;62039;50.000;9.064;2022-07-17T04:09:51;3.20;;;1.00;;
73733;SDS011;62039;50.000;9.064;2022-07-17T04:12:17;0.73;;;0.73;;
73733;SDS011;62039;50.000;9.064;2022-07-17T04:14:45;1.03;;;0.93;;
73733;SDS011;62039;50.000;9.064;2022-07-17T04:17:12;1.60;;;0.90;;
73733;SDS011;62039;50.000;9.064;2022-07-17T04:19:38;2.40;;;1.30;;
73733;SDS011;62039;50.000;9.064;2022-07-17T04:22:05;2.10;;;1.20;;
73733;SDS011;62039;50.000;9.064;2022-07-17T04:24:32;0.87;;;0.87;;
73733;SDS011;62039;50.000;9.064;2022-07-17T04:26:58;0.80;;;0.80;;
73733;SDS011;62039;50.000;9.064;2022-07-17T04:29:25;1.13;;;1.00;;
73733;SDS011;62039;50.000;9.064;2022-07-17T04:31:53;1.57;;;0.90;;
73733;SDS011;62039;50.000;9.064;2022-07-17T04:34:20;1.33;;;0.90;;
73733;SDS011;62039;50.000;9.064;2022-07-17T04:36:46;1.40;;;1.07;;
73733;SDS011;62039;50.000;9.064;2022-07-17T04:39:13;1.17;;;1.07;;
73733;SDS011;62039;50.000;9.064;2022-07-17T04:41:39;0.87;;;0.87;;
73733;SDS011;62039;50.000;9.064;2022-07-17T04:44:06;2.40;;;1.10;;
73733;SDS011;62039;50.000;9.064;2022-07-17T04:46:32;2.93;;;1.10;;
73733;SDS011;62039;50.000;9.064;2022-07-17T04:49:01;1.60;;;1.37;;
73733;SDS011;62039;50.000;9.064;2022-07-17T04:51:27;1.40;;;1.27;;
73733;SDS011;62039;50.000;9.064;2022-07-17T04:53:54;2.23;;;1.30;;
73733;SDS011;62039;50.000;9.064;2022-07-17T04:56:21;1.40;;;1.10;;
73733;SDS011;62039;50.000;9.064;2022-07-17T04:58:47;2.23;;;1.50;;
73733;SDS011;62039;50.000;9.064;2022-07-17T05:01:14;1.50;;;1.40;;
73733;SDS011;62039;50.000;9.064;2022-07-17T05:03:41;2.43;;;1.30;;
73733;SDS011;62039;50.000;9.064;2022-07-17T05:06:09;3.50;;;1.70;;
73733;SDS011;62039;50.000;9.064;2022-07-17T05:08:36;1.80;;;1.50;;
73733;SDS011;62039;50.000;9.064;2022-07-17T05:11:03;5.37;;;1.53;;
73733;SDS011;62039;50.000;9.064;2022-07-17T05:13:30;1.47;;;1.33;;
73733;SDS011;62039;50.000;9.064;2022-07-17T05:15:56;1.30;;;1.20;;
73733;SDS011;62039;50.000;9.064;2022-07-17T05:18:23;2.93;;;1.50;;
73733;SDS011;62039;50.000;9.064;2022-07-17T05:20:50;1.20;;;0.90;;
73733;SDS011;62039;50.000;9.064;2022-07-17T05:23:18;1.30;;;1.20;;
73733;SDS011;62039;50.000;9.064;2022-07-17T05:25:44;2.33;;;1.23;;
73733;SDS011;62039;50.000;9.064;2022-07-17T05:28:11;2.07;;;0.93;;
73733;SDS011;62039;50.000;9.064;2022-07-17T05:30:37;1.83;;;1.00;;
73733;SDS011;62039;50.000;9.064;2022-07-17T05:33:04;2.77;;;1.30;;
73733;SDS011;62039;50.000;9.064;2022-07-17T05:35:31;1.20;;;0.80;;
73733;SDS011;62039;50.000;9.064;2022-07-17T05:37:57;1.30;;;0.80;;
73733;SDS011;62039;50.000;9.064;2022-07-17T05:40:25;1.00;;;0.90;;
73733;SDS011;62039;50.000;9.064;2022-07-17T05:42:52;0.80;;;0.60;;
73733;SDS011;62039;50.000;9.064;2022-07-17T05:45:19;1.80;;;0.80;;
73733;SDS011;62039;50.000;9.064;2022-07-17T05:47:45;1.63;;;0.77;;
73733;SDS011;62039;50.000;9.064;2022-07-17T05:50:13;1.17;;;0.93;;
73733;SDS011;62039;50.000;9.064;2022-07-17T05:52:40;1.10;;;0.80;;
73733;SDS011;62039;50.000;9.064;2022-07-17T05:55:07;2.17;;;1.00;;
73733;SDS011;62039;50.000;9.064;2022-07-17T05:57:35;1.00;;;0.80;;
73733;SDS011;62039;50.000;9.064;2022-07-17T06:00:02;2.70;;;0.90;;
73733;SDS011;62039;50.000;9.064;2022-07-17T06:02:29;1.77;;;0.70;;
73733;SDS011;62039;50.000;9.064;2022-07-17T06:04:56;0.80;;;0.80;;
73733;SDS011;62039;50.000;9.064;2022-07-17T06:07:22;1.43;;;0.70;;
73733;SDS011;62039;50.000;9.064;2022-07-17T06:09:49;1.47;;;0.70;;
73733;SDS011;62039;50.000;9.064;2022-07-17T06:12:15;1.30;;;0.80;;
73733;SDS011;62039;50.000;9.064;2022-07-17T06:14:43;1.53;;;0.80;;
73733;SDS011;62039;50.000;9.064;2022-07-17T06:17:10;1.20;;;0.90;;
73733;SDS011;62039;50.000;9.064;2022-07-17T06:19:37;0.60;;;0.60;;
73733;SDS011;62039;50.000;9.064;2022-07-17T06:22:03;1.00;;;0.70;;
73733;SDS011;62039;50.000;9.064;2022-07-17T06:24:30;1.60;;;0.73;;
73733;SDS011;62039;50.000;9.064;2022-07-17T06:26:57;0.83;;;0.57;;
73733;SDS011;62039;50.000;9.064;2022-07-17T06:29:23;1.10;;;0.70;;
73733;SDS011;62039;50.000;9.064;2022-07-17T06:31:51;0.90;;;0.60;;
73733;SDS011;62039;50.000;9.064;2022-07-17T06:34:18;1.67;;;0.87;;
73733;SDS011;62039;50.000;9.064;2022-07-17T06:36:44;1.00;;;0.80;;
73733;SDS011;62039;50.000;9.064;2022-07-17T06:39:11;1.77;;;0.70;;
73733;SDS011;62039;50.000;9.064;2022-07-17T06:41:38;1.77;;;0.73;;
73733;SDS011;62039;50.000;9.064;2022-07-17T06:44:04;1.40;;;0.50;;
73733;SDS011;62039;50.000;9.064;2022-07-17T06:46:31;1.43;;;0.60;;
73733;SDS011;62039;50.000;9.064;2022-07-17T06:48:59;1.93;;;1.00;;
73733;SDS011;62039;50.000;9.064;2022-07-17T06:51:25;1.87;;;0.80;;
73733;SDS011;62039;50.000;9.064;2022-07-17T06:53:52;0.77;;;0.63;;
73733;SDS011;62039;50.000;9.064;2022-07-17T06:56:19;1.00;;;0.80;;
73733;SDS011;62039;50.000;9.064;2022-07-17T06:58:46;2.20;;;1.00;;
73733;SDS011;62039;50.000;9.064;2022-07-17T07:01:12;0.70;;;0.70;;
73733;SDS011;62039;50.000;9.064;2022-07-17T07:03:39;1.67;;;0.80;;
73733;SDS011;62039;50.000;9.064;2022-07-17T07:06:07;1.23;;;0.63;;
73733;SDS011;62039;50.000;9.064;2022-07-17T07:08:34;1.13;;;0.80;;
73733;SDS011;62039;50.000;9.064;2022-07-17T07:11:00;1.13;;;0.90;;
73733;SDS011;62039;50.000;9.064;2022-07-17T07:13:27;0.63;;;0.60;;
73733;SDS011;62039;50.000;9.064;2022-07-17T07:15:54;1.27;;;0.60;;
73733;SDS011;62039;50.000;9.064;2022-07-17T07:18:21;2.20;;;0.70;;
73733;SDS011;62039;50.000;9.064;2022-07-17T07:20:48;0.63;;;0.60;;
73733;SDS011;62039;50.000;9.064;2022-07-17T07:23:16;0.73;;;0.70;;
73733;SDS011;62039;50.000;9.064;2022-07-17T07:25:42;1.07;;;0.70;;
73733;SDS011;62039;50.000;9.064;2022-07-17T07:28:09;0.70;;;0.63;;
73733;SDS011;62039;50.000;9.064;2022-07-17T07:30:36;1.10;;;0.60;;
73733;SDS011;62039;50.000;9.064;2022-07-17T07:33:02;0.97;;;0.73;;
73733;SDS011;62039;50.000;9.064;2022-07-17T07:35:29;1.30;;;0.90;;
73733;SDS011;62039;50.000;9.064;2022-07-17T07:37:55;0.90;;;0.90;;
73733;SDS011;62039;50.000;9.064;2022-07-17T07:40:23;1.07;;;0.80;;
73733;SDS011;62039;50.000;9.064;2022-07-17T07:42:50;1.33;;;0.90;;
73733;SDS011;62039;50.000;9.064;2022-07-17T07:45:17;2.93;;;0.90;;
73733;SDS011;62039;50.000;9.064;2022-07-17T07:47:44;1.40;;;0.90;;
73733;SDS011;62039;50.000;9.064;2022-07-17T07:50:13;0.80;;;0.60;;
73733;SDS011;62039;50.000;9.064;2022-07-17T07:52:40;1.67;;;0.83;;
73733;SDS011;62039;50.000;9.064;2022-07-17T07:55:07;1.23;;;0.73;;
73733;SDS011;62039;50.000;9.064;2022-07-17T07:57:39;1.47;;;0.80;;
73733;SDS011;62039;50.000;9.064;2022-07-17T08:00:07;1.53;;;0.60;;
73733;SDS011;62039;50.000;9.064;2022-07-17T08:02:35;1.20;;;0.70;;
73733;SDS011;62039;50.000;9.064;2022-07-17T08:05:02;1.50;;;0.80;;
73733;SDS011;62039;50.000;9.064;2022-07-17T08:07:30;1.30;;;0.60;;
73733;SDS011;62039;50.000;9.064;2022-07-17T08:09:57;2.87;;;0.80;;
73733;SDS011;62039;50.000;9.064;2022-07-17T08:12:24;1.37;;;0.83;;
73733;SDS011;62039;50.000;9.064;2022-07-17T08:15:12;0.57;;;0.50;;
73733;SDS011;62039;50.000;9.064;2022-07-17T08:17:39;1.30;;;0.70;;
73733;SDS011;62039;50.000;9.064;2022-07-17T08:20:07;1.20;;;0.73;;
73733;SDS011;62039;50.000;9.064;2022-07-17T08:22:39;2.37;;;1.00;;
73733;SDS011;62039;50.000;9.064;2022-07-17T08:25:26;1.67;;;0.83;;
73733;SDS011;62039;50.000;9.064;2022-07-17T08:27:53;1.03;;;0.70;;
73733;SDS011;62039;50.000;9.064;2022-07-17T08:30:21;1.57;;;0.80;;
73733;SDS011;62039;50.000;9.064;2022-07-17T08:32:47;1.57;;;0.70;;
73733;SDS011;62039;50.000;9.064;2022-07-17T08:35:14;2.53;;;0.77;;
73733;SDS011;62039;50.000;9.064;2022-07-17T08:37:44;13.00;;;1.10;;
73733;SDS011;62039;50.000;9.064;2022-07-17T08:40:15;2.00;;;0.90;;
73733;SDS011;62039;50.000;9.064;2022-07-17T08:42:43;1.20;;;0.83;;
73733;SDS011;62039;50.000;9.064;2022-07-17T08:45:09;1.80;;;0.73;;
73733;SDS011;62039;50.000;9.064;2022-07-17T08:47:38;2.10;;;0.70;;
73733;SDS011;62039;50.000;9.064;2022-07-17T08:50:05;0.60;;;0.60;;
73733;SDS011;62039;50.000;9.064;2022-07-17T08:52:33;2.47;;;0.80;;
73733;SDS011;62039;50.000;9.064;2022-07-17T08:54:59;1.23;;;0.70;;
73733;SDS011;62039;50.000;9.064;2022-07-17T08:57:26;2.80;;;1.10;;
73733;SDS011;62039;50.000;9.064;2022-07-17T08:59:53;1.20;;;0.80;;
73733;SDS011;62039;50.000;9.064;2022-07-17T09:02:19;1.20;;;0.77;;
73733;SDS011;62039;50.000;9.064;2022-07-17T09:04:53;1.60;;;0.60;;
73733;SDS011;62039;50.000;9.064;2022-07-17T09:07:20;1.10;;;0.57;;
73733;SDS011;62039;50.000;9.064;2022-07-17T09:09:49;0.40;;;0.40;;
73733;SDS011;62039;50.000;9.064;2022-07-17T09:12:16;1.53;;;0.70;;
73733;SDS011;62039;50.000;9.064;2022-07-17T09:14:43;2.73;;;1.00;;
73733;SDS011;62039;50.000;9.064;2022-07-17T09:17:10;1.20;;;0.83;;
73733;SDS011;62039;50.000;9.064;2022-07-17T09:19:39;1.30;;;0.83;;
73733;SDS011;62039;50.000;9.064;2022-07-17T09:22:10;1.27;;;0.80;;
73733;SDS011;62039;50.000;9.064;2022-07-17T09:24:39;0.70;;;0.60;;
73733;SDS011;62039;50.000;9.064;2022-07-17T09:27:07;1.13;;;0.70;;
73733;SDS011;62039;50.000;9.064;2022-07-17T09:29:34;0.90;;;0.70;;
73733;SDS011;62039;50.000;9.064;2022-07-17T09:32:00;1.17;;;0.80;;
73733;SDS011;62039;50.000;9.064;2022-07-17T09:34:27;1.77;;;0.80;;
73733;SDS011;62039;50.000;9.064;2022-07-17T09:37:00;0.80;;;0.57;;
73733;SDS011;62039;50.000;9.064;2022-07-17T09:39:37;1.03;;;0.60;;
73733;SDS011;62039;50.000;9.064;2022-07-17T09:42:04;1.00;;;0.60;;
73733;SDS011;62039;50.000;9.064;2022-07-17T09:44:31;1.30;;;0.57;;
73733;SDS011;62039;50.000;9.064;2022-07-17T09:46:58;0.50;;;0.50;;
73733;SDS011;62039;50.000;9.064;2022-07-17T09:49:27;0.50;;;0.43;;
73733;SDS011;62039;50.000;9.064;2022-07-17T09:51:54;0.93;;;0.60;;
73733;SDS011;62039;50.000;9.064;2022-07-17T09:54:21;1.33;;;0.70;;
73733;SDS011;62039;50.000;9.064;2022-07-17T09:56:51;0.70;;;0.50;;
73733;SDS011;62039;50.000;9.064;2022-07-17T09:59:18;1.10;;;0.70;;
73733;SDS011;62039;50.000;9.064;2022-07-17T10:01:45;2.73;;;0.70;;
73733;SDS011;62039;50.000;9.064;2022-07-17T10:04:12;3.25;;;1.00;;
73733;SDS011;62039;50.000;9.064;2022-07-17T10:06:39;1.73;;;0.90;;
73733;SDS011;62039;50.000;9.064;2022-07-17T10:09:05;0.63;;;0.60;;
73733;SDS011;62039;50.000;9.064;2022-07-17T10:11:33;1.20;;;0.80;;
73733;SDS011;62039;50.000;9.064;2022-07-17T10:14:08;1.63;;;0.73;;
73733;SDS011;62039;50.000;9.064;2022-07-17T10:16:36;1.40;;;0.80;;
73733;SDS011;62039;50.000;9.064;2022-07-17T10:19:14;1.67;;;1.30;;
73733;SDS011;62039;50.000;9.064;2022-07-17T10:21:51;0.70;;;0.70;;
73733;SDS011;62039;50.000;9.064;2022-07-17T10:24:19;1.85;;;1.10;;
73733;SDS011;62039;50.000;9.064;2022-07-17T10:26:46;1.67;;;0.90;;
73733;SDS011;62039;50.000;9.064;2022-07-17T10:29:28;2.03;;;0.90;;
73733;SDS011;62039;50.000;9.064;2022-07-17T10:31:57;1.90;;;0.70;;
73733;SDS011;62039;50.000;9.064;2022-07-17T10:37:13;1.17;;;0.70;;
73733;SDS011;62039;50.000;9.064;2022-07-17T10:39:51;0.93;;;0.60;;
73733;SDS011;62039;50.000;9.064;2022-07-17T10:45:08;1.38;;;0.90;;
73733;SDS011;62039;50.000;9.064;2022-07-17T10:47:44;1.07;;;0.60;;
73733;SDS011;62039;50.000;9.064;2022-07-17T10:50:11;1.83;;;0.90;;
73733;SDS011;62039;50.000;9.064;2022-07-17T10:52:38;1.43;;;0.70;;
73733;SDS011;62039;50.000;9.064;2022-07-17T10:55:05;1.13;;;0.70;;
73733;SDS011;62039;50.000;9.064;2022-07-17T10:57:43;1.10;;;0.80;;
73733;SDS011;62039;50.000;9.064;2022-07-17T11:00:12;1.13;;;0.73;;
73733;SDS011;62039;50.000;9.064;2022-07-17T11:02:39;0.70;;;0.50;;
73733;SDS011;62039;50.000;9.064;2022-07-17T11:05:06;0.83;;;0.70;;
73733;SDS011;62039;50.000;9.064;2022-07-17T11:07:33;1.30;;;0.73;;
73733;SDS011;62039;50.000;9.064;2022-07-17T11:09:59;1.43;;;0.80;;
73733;SDS011;62039;50.000;9.064;2022-07-17T11:12:30;1.83;;;0.70;;
73733;SDS011;62039;50.000;9.064;2022-07-17T11:15:00;0.57;;;0.50;;
73733;SDS011;62039;50.000;9.064;2022-07-17T11:17:28;0.65;;;0.52;;
73733;SDS011;62039;50.000;9.064;2022-07-17T11:19:57;1.17;;;0.73;;
73733;SDS011;62039;50.000;9.064;2022-07-17T11:22:24;1.02;;;0.65;;
73733;SDS011;62039;50.000;9.064;2022-07-17T11:24:51;0.88;;;0.60;;
73733;SDS011;62039;50.000;9.064;2022-07-17T11:27:19;1.30;;;0.80;;
73733;SDS011;62039;50.000;9.064;2022-07-17T11:29:49;0.98;;;0.75;;
73733;SDS011;62039;50.000;9.064;2022-07-17T11:32:16;0.60;;;0.52;;
73733;SDS011;62039;50.000;9.064;2022-07-17T11:34:45;2.15;;;0.77;;
73733;SDS011;62039;50.000;9.064;2022-07-17T11:37:11;0.98;;;0.52;;
73733;SDS011;62039;50.000;9.064;2022-07-17T11:39:39;0.70;;;0.70;;
73733;SDS011;62039;50.000;9.064;2022-07-17T11:42:07;0.95;;;0.65;;
73733;SDS011;62039;50.000;9.064;2022-07-17T11:44:34;1.02;;;0.60;;
73733;SDS011;62039;50.000;9.064;2022-07-17T11:47:01;1.35;;;0.90;;
73733;SDS011;62039;50.000;9.064;2022-07-17T11:49:33;1.45;;;0.80;;
73733;SDS011;62039;50.000;9.064;2022-07-17T11:52:08;3.03;;;0.80;;
73733;SDS011;62039;50.000;9.064;2022-07-17T11:54:43;1.52;;;0.60;;
73733;SDS011;62039;50.000;9.064;2022-07-17T11:57:11;0.77;;;0.73;;
73733;SDS011;62039;50.000;9.064;2022-07-17T11:59:37;1.88;;;0.80;;
73733;SDS011;62039;50.000;9.064;2022-07-17T12:02:08;0.73;;;0.70;;
73733;SDS011;62039;50.000;9.064;2022-07-17T12:04:47;1.00;;;0.60;;
73733;SDS011;62039;50.000;9.064;2022-07-17T12:07:15;1.60;;;0.80;;
73733;SDS011;62039;50.000;9.064;2022-07-17T12:09:42;1.45;;;0.63;;
73733;SDS011;62039;50.000;9.064;2022-07-17T12:12:17;1.55;;;0.70;;
73733;SDS011;62039;50.000;9.064;2022-07-17T12:14:46;2.05;;;0.88;;
73733;SDS011;62039;50.000;9.064;2022-07-17T12:17:13;1.15;;;0.50;;
73733;SDS011;62039;50.000;9.064;2022-07-17T12:19:40;1.02;;;0.60;;
73733;SDS011;62039;50.000;9.064;2022-07-17T12:22:06;1.02;;;0.65;;
73733;SDS011;62039;50.000;9.064;2022-07-17T12:24:36;1.70;;;0.82;;
73733;SDS011;62039;50.000;9.064;2022-07-17T12:27:04;0.80;;;0.80;;
73733;SDS011;62039;50.000;9.064;2022-07-17T12:29:33;2.15;;;0.60;;
73733;SDS011;62039;50.000;9.064;2022-07-17T12:32:00;0.73;;;0.57;;
73733;SDS011;62039;50.000;9.064;2022-07-17T12:34:28;1.58;;;0.88;;
73733;SDS011;62039;50.000;9.064;2022-07-17T12:36:55;0.85;;;0.70;;
73733;SDS011;62039;50.000;9.064;2022-07-17T12:39:22;0.90;;;0.60;;
73733;SDS011;62039;50.000;9.064;2022-07-17T12:41:50;1.33;;;0.70;;
73733;SDS011;62039;50.000;9.064;2022-07-17T12:44:17;1.35;;;0.70;;
73733;SDS011;62039;50.000;9.064;2022-07-17T12:46:44;0.90;;;0.57;;
73733;SDS011;62039;50.000;9.064;2022-07-17T12:49:10;0.85;;;0.60;;
73733;SDS011;62039;50.000;9.064;2022-07-17T12:51:37;2.35;;;0.70;;
73733;SDS011;62039;50.000;9.064;2022-07-17T12:54:03;0.60;;;0.60;;
73733;SDS011;62039;50.000;9.064;2022-07-17T12:56:30;0.70;;;0.50;;
73733;SDS011;62039;50.000;9.064;2022-07-17T12:58:58;1.23;;;0.70;;
73733;SDS011;62039;50.000;9.064;2022-07-17T13:01:27;0.68;;;0.50;;
73733;SDS011;62039;50.000;9.064;2022-07-17T13:03:55;1.27;;;0.57;;
73733;SDS011;62039;50.000;9.064;2022-07-17T13:06:22;1.08;;;0.70;;
73733;SDS011;62039;50.000;9.064;2022-07-17T13:08:48;1.98;;;0.65;;
73733;SDS011;62039;50.000;9.064;2022-07-17T13:11:15;1.58;;;0.80;;
73733;SDS011;62039;50.000;9.064;2022-07-17T13:13:41;0.75;;;0.50;;
73733;SDS011;62039;50.000;9.064;2022-07-17T13:16:11;2.25;;;0.60;;
73733;SDS011;62039;50.000;9.064;2022-07-17T13:18:39;0.88;;;0.63;;
73733;SDS011;62039;50.000;9.064;2022-07-17T13:21:06;1.00;;;0.80;;
73733;SDS011;62039;50.000;9.064;2022-07-17T13:23:33;0.60;;;0.60;;
73733;SDS011;62039;50.000;9.064;2022-07-17T13:26:01;0.82;;;0.60;;
73733;SDS011;62039;50.000;9.064;2022-07-17T13:28:28;1.27;;;0.60;;
73733;SDS011;62039;50.000;9.064;2022-07-17T13:30:55;1.52;;;0.80;;
73733;SDS011;62039;50.000;9.064;2022-07-17T13:33:23;2.13;;;0.80;;
73733;SDS011;62039;50.000;9.064;2022-07-17T13:35:50;1.35;;;0.90;;
73733;SDS011;62039;50.000;9.064;2022-07-17T13:38:17;1.08;;;0.70;;
73733;SDS011;62039;50.000;9.064;2022-07-17T13:40:45;0.68;;;0.57;;
73733;SDS011;62039;50.000;9.064;2022-07-17T13:43:11;1.13;;;0.70;;
73733;SDS011;62039;50.000;9.064;2022-07-17T13:45:38;1.92;;;0.65;;
73733;SDS011;62039;50.000;9.064;2022-07-17T13:48:05;2.95;;;0.75;;
73733;SDS011;62039;50.000;9.064;2022-07-17T13:50:33;0.82;;;0.50;;
73733;SDS011;62039;50.000;9.064;2022-07-17T13:53:00;0.80;;;0.60;;
73733;SDS011;62039;50.000;9.064;2022-07-17T13:55:27;0.75;;;0.68;;
73733;SDS011;62039;50.000;9.064;2022-07-17T13:58:13;0.60;;;0.52;;
73733;SDS011;62039;50.000;9.064;2022-07-17T14:00:40;0.70;;;0.50;;
73733;SDS011;62039;50.000;9.064;2022-07-17T14:03:07;0.52;;;0.47;;
73733;SDS011;62039;50.000;9.064;2022-07-17T14:05:35;0.60;;;0.57;;
73733;SDS011;62039;50.000;9.064;2022-07-17T14:08:01;1.48;;;0.70;;
73733;SDS011;62039;50.000;9.064;2022-07-17T14:10:28;1.02;;;0.70;;
73733;SDS011;62039;50.000;9.064;2022-07-17T14:12:55;0.40;;;0.40;;
73733;SDS011;62039;50.000;9.064;2022-07-17T14:15:21;0.70;;;0.63;;
73733;SDS011;62039;50.000;9.064;2022-07-17T14:17:48;1.25;;;0.70;;
73733;SDS011;62039;50.000;9.064;2022-07-17T14:20:15;0.80;;;0.57;;
73733;SDS011;62039;50.000;9.064;2022-07-17T14:22:43;0.73;;;0.50;;
73733;SDS011;62039;50.000;9.064;2022-07-17T14:25:09;0.75;;;0.50;;
73733;SDS011;62039;50.000;9.064;2022-07-17T14:27:36;0.73;;;0.70;;
73733;SDS011;62039;50.000;9.064;2022-07-17T14:30:03;0.50;;;0.40;;
73733;SDS011;62039;50.000;9.064;2022-07-17T14:32:30;0.50;;;0.45;;
73733;SDS011;62039;50.000;9.064;2022-07-17T14:34:56;0.63;;;0.60;;
73733;SDS011;62039;50.000;9.064;2022-07-17T14:37:23;0.90;;;0.70;;
73733;SDS011;62039;50.000;9.064;2022-07-17T14:39:51;0.75;;;0.60;;
73733;SDS011;62039;50.000;9.064;2022-07-17T14:42:17;0.70;;;0.60;;
73733;SDS011;62039;50.000;9.064;2022-07-17T14:44:44;1.05;;;0.60;;
73733;SDS011;62039;50.000;9.064;2022-07-17T14:47:11;1.00;;;0.70;;
73733;SDS011;62039;50.000;9.064;2022-07-17T14:49:38;1.27;;;0.70;;
73733;SDS011;62039;50.000;9.064;2022-07-17T14:52:04;1.00;;;0.60;;
73733;SDS011;62039;50.000;9.064;2022-07-17T14:54:31;0.93;;;0.60;;
73733;SDS011;62039;50.000;9.064;2022-07-17T14:56:59;0.50;;;0.50;;